sensor_id;sensor_type;location;lat;lon;timestamp;P1;durP1;ratioP1;P2;durP2;ratioP2
68050;SDS011;54839;51.364;7.246;2023-08-24T00:02:06;7.83;;;5.80;;
68050;SDS011;54839;51.364;7.246;2023-08-24T00:04:32;11.33;;;5.50;;
68050;SDS011;54839;51.364;7.246;2023-08-24T00:07:02;6.03;;;3.40;;
68050;SDS011;54839;51.364;7.246;2023-08-24T00:09:28;5.00;;;3.87;;
68050;SDS011;54839;51.364;7.246;2023-08-24T00:11:54;5.83;;;3.93;;
68050;SDS011;54839;51.364;7.246;2023-08-24T00:14:20;11.50;;;4.87;;
68050;SDS011;54839;51.364;7.246;2023-08-24T00:16:46;4.30;;;3.90;;
68050;SDS011;54839;51.364;7.246;2023-08-24T00:19:11;5.07;;;4.60;;
68050;SDS011;54839;51.364;7.246;2023-08-24T00:21:37;5.83;;;4.10;;
68050;SDS011;54839;51.364;7.246;2023-08-24T00:24:03;6.20;;;4.40;;
68050;SDS011;54839;51.364;7.246;2023-08-24T00:26:28;6.77;;;4.03;;
68050;SDS011;54839;51.364;7.246;2023-08-24T00:28:54;8.30;;;4.67;;
68050;SDS011;54839;51.364;7.246;2023-08-24T00:31:20;5.30;;;4.13;;
68050;SDS011;54839;51.364;7.246;2023-08-24T00:33:46;6.60;;;4.07;;
68050;SDS011;54839;51.364;7.246;2023-08-24T00:36:11;4.43;;;3.90;;
68050;SDS011;54839;51.364;7.246;2023-08-24T00:38:37;6.10;;;4.37;;
68050;SDS011;54839;51.364;7.246;2023-08-24T00:41:03;5.50;;;4.07;;
68050;SDS011;54839;51.364;7.246;2023-08-24T00:43:28;4.30;;;3.60;;
68050;SDS011;54839;51.364;7.246;2023-08-24T00:45:59;4.57;;;4.07;;
68050;SDS011;54839;51.364;7.246;2023-08-24T00:48:26;5.40;;;3.77;;
68050;SDS011;54839;51.364;7.246;2023-08-24T00:51:00;5.50;;;4.33;;
68050;SDS011;54839;51.364;7.246;2023-08-24T00:53:26;6.80;;;4.80;;
68050;SDS011;54839;51.364;7.246;2023-08-24T00:55:53;6.57;;;4.20;;
68050;SDS011;54839;51.364;7.246;2023-08-24T00:58:19;4.80;;;4.27;;
68050;SDS011;54839;51.364;7.246;2023-08-24T01:00:45;8.50;;;5.23;;
68050;SDS011;54839;51.364;7.246;2023-08-24T01:03:11;11.83;;;4.23;;
68050;SDS011;54839;51.364;7.246;2023-08-24T01:05:37;4.07;;;3.67;;
68050;SDS011;54839;51.364;7.246;2023-08-24T01:08:03;5.67;;;4.10;;
68050;SDS011;54839;51.364;7.246;2023-08-24T01:10:30;7.33;;;4.53;;
68050;SDS011;54839;51.364;7.246;2023-08-24T01:13:09;6.43;;;4.60;;
68050;SDS011;54839;51.364;7.246;2023-08-24T01:15:42;11.40;;;4.40;;
68050;SDS011;54839;51.364;7.246;2023-08-24T01:18:23;5.63;;;3.93;;
68050;SDS011;54839;51.364;7.246;2023-08-24T01:20:52;4.00;;;3.37;;
68050;SDS011;54839;51.364;7.246;2023-08-24T01:23:24;6.27;;;3.63;;
68050;SDS011;54839;51.364;7.246;2023-08-24T01:26:19;5.80;;;4.40;;
68050;SDS011;54839;51.364;7.246;2023-08-24T01:28:45;7.03;;;4.43;;
68050;SDS011;54839;51.364;7.246;2023-08-24T01:31:15;6.40;;;4.23;;
68050;SDS011;54839;51.364;7.246;2023-08-24T01:33:42;4.30;;;3.90;;
68050;SDS011;54839;51.364;7.246;2023-08-24T01:36:08;8.43;;;4.23;;
68050;SDS011;54839;51.364;7.246;2023-08-24T01:38:36;6.20;;;4.10;;
68050;SDS011;54839;51.364;7.246;2023-08-24T01:41:06;4.07;;;3.77;;
68050;SDS011;54839;51.364;7.246;2023-08-24T01:43:40;5.70;;;4.03;;
68050;SDS011;54839;51.364;7.246;2023-08-24T01:46:08;5.73;;;3.93;;
68050;SDS011;54839;51.364;7.246;2023-08-24T01:48:36;5.47;;;3.97;;
68050;SDS011;54839;51.364;7.246;2023-08-24T01:51:02;6.93;;;4.47;;
68050;SDS011;54839;51.364;7.246;2023-08-24T01:53:29;6.40;;;4.13;;
68050;SDS011;54839;51.364;7.246;2023-08-24T01:55:56;5.23;;;4.77;;
68050;SDS011;54839;51.364;7.246;2023-08-24T01:58:22;6.33;;;3.70;;
68050;SDS011;54839;51.364;7.246;2023-08-24T02:00:47;5.87;;;4.53;;
68050;SDS011;54839;51.364;7.246;2023-08-24T02:03:13;8.37;;;4.53;;
68050;SDS011;54839;51.364;7.246;2023-08-24T02:05:39;6.83;;;4.10;;
68050;SDS011;54839;51.364;7.246;2023-08-24T02:08:04;4.03;;;3.73;;
68050;SDS011;54839;51.364;7.246;2023-08-24T02:10:30;5.37;;;4.63;;
68050;SDS011;54839;51.364;7.246;2023-08-24T02:12:56;5.67;;;4.93;;
68050;SDS011;54839;51.364;7.246;2023-08-24T02:15:22;5.20;;;4.70;;
68050;SDS011;54839;51.364;7.246;2023-08-24T02:17:47;5.77;;;4.77;;
68050;SDS011;54839;51.364;7.246;2023-08-24T02:20:13;5.70;;;4.47;;
68050;SDS011;54839;51.364;7.246;2023-08-24T02:22:39;5.80;;;3.60;;
68050;SDS011;54839;51.364;7.246;2023-08-24T02:25:05;4.87;;;4.47;;
68050;SDS011;54839;51.364;7.246;2023-08-24T02:27:32;9.37;;;5.17;;
68050;SDS011;54839;51.364;7.246;2023-08-24T02:29:58;4.87;;;3.90;;
68050;SDS011;54839;51.364;7.246;2023-08-24T02:32:23;5.23;;;4.20;;
68050;SDS011;54839;51.364;7.246;2023-08-24T02:34:49;4.97;;;4.57;;
68050;SDS011;54839;51.364;7.246;2023-08-24T02:37:15;5.10;;;4.70;;
68050;SDS011;54839;51.364;7.246;2023-08-24T02:39:40;6.50;;;4.27;;
68050;SDS011;54839;51.364;7.246;2023-08-24T02:42:06;7.20;;;4.67;;
68050;SDS011;54839;51.364;7.246;2023-08-24T02:44:31;5.83;;;4.43;;
68050;SDS011;54839;51.364;7.246;2023-08-24T02:46:57;5.20;;;4.10;;
68050;SDS011;54839;51.364;7.246;2023-08-24T02:49:23;5.10;;;4.20;;
68050;SDS011;54839;51.364;7.246;2023-08-24T02:51:49;4.60;;;4.20;;
68050;SDS011;54839;51.364;7.246;2023-08-24T02:54:14;5.33;;;4.83;;
68050;SDS011;54839;51.364;7.246;2023-08-24T02:56:40;7.60;;;4.83;;
68050;SDS011;54839;51.364;7.246;2023-08-24T02:59:05;9.83;;;5.00;;
68050;SDS011;54839;51.364;7.246;2023-08-24T03:01:31;7.67;;;4.17;;
68050;SDS011;54839;51.364;7.246;2023-08-24T03:03:57;5.23;;;4.67;;
68050;SDS011;54839;51.364;7.246;2023-08-24T03:06:22;6.70;;;3.97;;
68050;SDS011;54839;51.364;7.246;2023-08-24T03:08:51;4.80;;;3.67;;
68050;SDS011;54839;51.364;7.246;2023-08-24T03:11:17;5.40;;;4.90;;
68050;SDS011;54839;51.364;7.246;2023-08-24T03:13:42;4.43;;;4.03;;
68050;SDS011;54839;51.364;7.246;2023-08-24T03:16:08;6.10;;;4.27;;
68050;SDS011;54839;51.364;7.246;2023-08-24T03:18:34;7.20;;;3.80;;
68050;SDS011;54839;51.364;7.246;2023-08-24T03:21:00;4.83;;;4.20;;
68050;SDS011;54839;51.364;7.246;2023-08-24T03:23:26;5.07;;;4.03;;
68050;SDS011;54839;51.364;7.246;2023-08-24T03:25:51;7.67;;;4.67;;
68050;SDS011;54839;51.364;7.246;2023-08-24T03:28:17;7.40;;;4.47;;
68050;SDS011;54839;51.364;7.246;2023-08-24T03:31:01;6.13;;;4.70;;
68050;SDS011;54839;51.364;7.246;2023-08-24T03:33:27;7.67;;;4.47;;
68050;SDS011;54839;51.364;7.246;2023-08-24T03:35:53;4.40;;;4.00;;
68050;SDS011;54839;51.364;7.246;2023-08-24T03:38:19;4.07;;;3.67;;
68050;SDS011;54839;51.364;7.246;2023-08-24T03:40:44;8.27;;;5.30;;
68050;SDS011;54839;51.364;7.246;2023-08-24T03:43:10;4.73;;;4.13;;
68050;SDS011;54839;51.364;7.246;2023-08-24T03:45:36;6.70;;;5.17;;
68050;SDS011;54839;51.364;7.246;2023-08-24T03:48:02;4.20;;;3.63;;
68050;SDS011;54839;51.364;7.246;2023-08-24T03:50:27;3.87;;;3.57;;
68050;SDS011;54839;51.364;7.246;2023-08-24T03:52:53;6.50;;;4.10;;
68050;SDS011;54839;51.364;7.246;2023-08-24T03:55:19;4.40;;;3.83;;
68050;SDS011;54839;51.364;7.246;2023-08-24T03:57:45;7.80;;;4.53;;
68050;SDS011;54839;51.364;7.246;2023-08-24T04:00:11;13.43;;;5.07;;
68050;SDS011;54839;51.364;7.246;2023-08-24T04:02:40;8.07;;;4.70;;
68050;SDS011;54839;51.364;7.246;2023-08-24T04:05:06;5.37;;;4.10;;
68050;SDS011;54839;51.364;7.246;2023-08-24T04:07:32;8.23;;;5.00;;
68050;SDS011;54839;51.364;7.246;2023-08-24T04:09:58;5.63;;;3.77;;
68050;SDS011;54839;51.364;7.246;2023-08-24T04:12:24;5.40;;;4.13;;
68050;SDS011;54839;51.364;7.246;2023-08-24T04:14:49;10.23;;;5.30;;
68050;SDS011;54839;51.364;7.246;2023-08-24T04:17:17;4.70;;;4.20;;
68050;SDS011;54839;51.364;7.246;2023-08-24T04:19:43;4.90;;;4.20;;
68050;SDS011;54839;51.364;7.246;2023-08-24T04:22:08;6.67;;;4.73;;
68050;SDS011;54839;51.364;7.246;2023-08-24T04:24:34;5.47;;;3.87;;
68050;SDS011;54839;51.364;7.246;2023-08-24T04:26:59;8.53;;;4.60;;
68050;SDS011;54839;51.364;7.246;2023-08-24T04:29:25;7.53;;;4.10;;
68050;SDS011;54839;51.364;7.246;2023-08-24T04:31:51;5.30;;;4.37;;
68050;SDS011;54839;51.364;7.246;2023-08-24T04:34:17;5.13;;;4.53;;
68050;SDS011;54839;51.364;7.246;2023-08-24T04:36:42;5.30;;;4.80;;
68050;SDS011;54839;51.364;7.246;2023-08-24T04:39:08;7.83;;;4.37;;
68050;SDS011;54839;51.364;7.246;2023-08-24T04:41:33;5.27;;;4.17;;
68050;SDS011;54839;51.364;7.246;2023-08-24T04:43:59;5.90;;;5.30;;
68050;SDS011;54839;51.364;7.246;2023-08-24T04:46:25;7.40;;;5.70;;
68050;SDS011;54839;51.364;7.246;2023-08-24T04:48:51;9.93;;;5.23;;
68050;SDS011;54839;51.364;7.246;2023-08-24T04:51:16;7.80;;;4.97;;
68050;SDS011;54839;51.364;7.246;2023-08-24T04:53:42;8.03;;;4.87;;
68050;SDS011;54839;51.364;7.246;2023-08-24T04:56:08;5.00;;;4.50;;
68050;SDS011;54839;51.364;7.246;2023-08-24T04:58:33;9.20;;;4.97;;
68050;SDS011;54839;51.364;7.246;2023-08-24T05:00:59;6.80;;;4.30;;
68050;SDS011;54839;51.364;7.246;2023-08-24T05:03:25;7.50;;;4.87;;
68050;SDS011;54839;51.364;7.246;2023-08-24T05:05:51;9.20;;;5.20;;
68050;SDS011;54839;51.364;7.246;2023-08-24T05:08:16;7.47;;;5.10;;
68050;SDS011;54839;51.364;7.246;2023-08-24T05:10:43;6.40;;;4.87;;
68050;SDS011;54839;51.364;7.246;2023-08-24T05:13:09;12.13;;;5.63;;
68050;SDS011;54839;51.364;7.246;2023-08-24T05:15:35;5.87;;;4.77;;
68050;SDS011;54839;51.364;7.246;2023-08-24T05:18:00;8.83;;;5.37;;
68050;SDS011;54839;51.364;7.246;2023-08-24T05:20:26;13.10;;;6.47;;
68050;SDS011;54839;51.364;7.246;2023-08-24T05:22:52;14.00;;;7.63;;
68050;SDS011;54839;51.364;7.246;2023-08-24T05:25:19;10.63;;;7.37;;
68050;SDS011;54839;51.364;7.246;2023-08-24T05:27:45;11.30;;;7.30;;
68050;SDS011;54839;51.364;7.246;2023-08-24T05:30:11;9.10;;;5.97;;
68050;SDS011;54839;51.364;7.246;2023-08-24T05:32:37;9.13;;;7.20;;
68050;SDS011;54839;51.364;7.246;2023-08-24T05:35:04;8.83;;;7.40;;
68050;SDS011;54839;51.364;7.246;2023-08-24T05:37:33;12.57;;;7.57;;
68050;SDS011;54839;51.364;7.246;2023-08-24T05:40:00;9.80;;;7.07;;
68050;SDS011;54839;51.364;7.246;2023-08-24T05:42:26;10.20;;;7.73;;
68050;SDS011;54839;51.364;7.246;2023-08-24T05:44:52;9.57;;;6.90;;
68050;SDS011;54839;51.364;7.246;2023-08-24T05:47:17;9.53;;;7.07;;
68050;SDS011;54839;51.364;7.246;2023-08-24T05:49:43;12.93;;;8.40;;
68050;SDS011;54839;51.364;7.246;2023-08-24T05:52:09;11.87;;;7.83;;
68050;SDS011;54839;51.364;7.246;2023-08-24T05:54:36;10.77;;;8.30;;
68050;SDS011;54839;51.364;7.246;2023-08-24T05:57:01;8.30;;;6.43;;
68050;SDS011;54839;51.364;7.246;2023-08-24T05:59:28;10.73;;;7.17;;
68050;SDS011;54839;51.364;7.246;2023-08-24T06:01:54;10.10;;;7.33;;
68050;SDS011;54839;51.364;7.246;2023-08-24T06:04:20;8.10;;;6.97;;
68050;SDS011;54839;51.364;7.246;2023-08-24T06:06:46;11.80;;;6.60;;
68050;SDS011;54839;51.364;7.246;2023-08-24T06:09:11;9.53;;;6.97;;
68050;SDS011;54839;51.364;7.246;2023-08-24T06:11:37;10.80;;;7.10;;
68050;SDS011;54839;51.364;7.246;2023-08-24T06:14:03;10.97;;;6.97;;
68050;SDS011;54839;51.364;7.246;2023-08-24T06:16:29;8.20;;;6.77;;
68050;SDS011;54839;51.364;7.246;2023-08-24T06:18:54;13.00;;;7.10;;
68050;SDS011;54839;51.364;7.246;2023-08-24T06:21:20;8.70;;;6.37;;
68050;SDS011;54839;51.364;7.246;2023-08-24T06:23:46;9.40;;;8.40;;
68050;SDS011;54839;51.364;7.246;2023-08-24T06:26:15;12.00;;;9.43;;
68050;SDS011;54839;51.364;7.246;2023-08-24T06:28:41;7.00;;;6.30;;
68050;SDS011;54839;51.364;7.246;2023-08-24T06:31:07;8.27;;;5.47;;
68050;SDS011;54839;51.364;7.246;2023-08-24T06:33:33;9.63;;;5.80;;
68050;SDS011;54839;51.364;7.246;2023-08-24T06:35:59;8.87;;;7.97;;
68050;SDS011;54839;51.364;7.246;2023-08-24T06:38:26;12.10;;;7.67;;
68050;SDS011;54839;51.364;7.246;2023-08-24T06:40:51;7.27;;;6.30;;
68050;SDS011;54839;51.364;7.246;2023-08-24T06:43:17;9.80;;;4.73;;
68050;SDS011;54839;51.364;7.246;2023-08-24T06:45:45;13.10;;;7.23;;
68050;SDS011;54839;51.364;7.246;2023-08-24T06:48:11;7.33;;;4.97;;
68050;SDS011;54839;51.364;7.246;2023-08-24T06:50:37;5.90;;;4.77;;
68050;SDS011;54839;51.364;7.246;2023-08-24T06:53:03;7.50;;;5.73;;
68050;SDS011;54839;51.364;7.246;2023-08-24T06:55:29;7.93;;;5.23;;
68050;SDS011;54839;51.364;7.246;2023-08-24T06:57:55;13.67;;;5.90;;
68050;SDS011;54839;51.364;7.246;2023-08-24T07:00:21;11.60;;;6.43;;
68050;SDS011;54839;51.364;7.246;2023-08-24T07:02:47;12.63;;;6.23;;
68050;SDS011;54839;51.364;7.246;2023-08-24T07:05:13;11.57;;;6.20;;
68050;SDS011;54839;51.364;7.246;2023-08-24T07:07:39;8.17;;;5.60;;
68050;SDS011;54839;51.364;7.246;2023-08-24T07:10:05;7.50;;;5.23;;
68050;SDS011;54839;51.364;7.246;2023-08-24T07:12:31;9.80;;;6.67;;
68050;SDS011;54839;51.364;7.246;2023-08-24T07:14:57;4.90;;;4.17;;
68050;SDS011;54839;51.364;7.246;2023-08-24T07:17:22;8.20;;;4.87;;
68050;SDS011;54839;51.364;7.246;2023-08-24T07:19:48;11.37;;;8.40;;
68050;SDS011;54839;51.364;7.246;2023-08-24T07:22:13;10.57;;;6.53;;
68050;SDS011;54839;51.364;7.246;2023-08-24T07:24:39;6.40;;;5.40;;
68050;SDS011;54839;51.364;7.246;2023-08-24T07:27:05;7.23;;;5.07;;
68050;SDS011;54839;51.364;7.246;2023-08-24T07:29:30;4.53;;;4.13;;
68050;SDS011;54839;51.364;7.246;2023-08-24T07:31:56;8.70;;;3.87;;
68050;SDS011;54839;51.364;7.246;2023-08-24T07:34:22;7.23;;;4.20;;
68050;SDS011;54839;51.364;7.246;2023-08-24T07:36:48;5.80;;;3.60;;
68050;SDS011;54839;51.364;7.246;2023-08-24T07:39:14;8.23;;;6.20;;
68050;SDS011;54839;51.364;7.246;2023-08-24T07:41:40;6.70;;;4.03;;
68050;SDS011;54839;51.364;7.246;2023-08-24T07:44:06;6.47;;;3.40;;
68050;SDS011;54839;51.364;7.246;2023-08-24T07:46:32;7.00;;;4.20;;
68050;SDS011;54839;51.364;7.246;2023-08-24T07:48:58;5.53;;;4.00;;
68050;SDS011;54839;51.364;7.246;2023-08-24T07:51:23;6.43;;;3.73;;
68050;SDS011;54839;51.364;7.246;2023-08-24T07:53:49;6.97;;;3.77;;
68050;SDS011;54839;51.364;7.246;2023-08-24T07:56:17;5.80;;;4.50;;
68050;SDS011;54839;51.364;7.246;2023-08-24T07:58:43;4.03;;;3.63;;
68050;SDS011;54839;51.364;7.246;2023-08-24T08:01:09;4.00;;;3.50;;
68050;SDS011;54839;51.364;7.246;2023-08-24T08:03:34;5.90;;;3.50;;
68050;SDS011;54839;51.364;7.246;2023-08-24T08:06:00;5.60;;;3.23;;
68050;SDS011;54839;51.364;7.246;2023-08-24T08:08:26;2.80;;;2.23;;
68050;SDS011;54839;51.364;7.246;2023-08-24T08:10:58;4.30;;;3.13;;
68050;SDS011;54839;51.364;7.246;2023-08-24T08:13:25;5.17;;;3.70;;
68050;SDS011;54839;51.364;7.246;2023-08-24T08:15:51;6.87;;;2.67;;
68050;SDS011;54839;51.364;7.246;2023-08-24T08:18:17;4.00;;;2.97;;
68050;SDS011;54839;51.364;7.246;2023-08-24T08:20:42;7.20;;;4.20;;
68050;SDS011;54839;51.364;7.246;2023-08-24T08:23:08;4.10;;;2.90;;
68050;SDS011;54839;51.364;7.246;2023-08-24T08:25:33;6.50;;;3.37;;
68050;SDS011;54839;51.364;7.246;2023-08-24T08:27:59;5.83;;;2.60;;
68050;SDS011;54839;51.364;7.246;2023-08-24T08:30:25;3.20;;;2.90;;
68050;SDS011;54839;51.364;7.246;2023-08-24T08:32:50;5.10;;;3.37;;
68050;SDS011;54839;51.364;7.246;2023-08-24T08:35:17;2.83;;;2.60;;
68050;SDS011;54839;51.364;7.246;2023-08-24T08:37:43;4.23;;;3.60;;
68050;SDS011;54839;51.364;7.246;2023-08-24T08:40:10;4.93;;;4.40;;
68050;SDS011;54839;51.364;7.246;2023-08-24T08:42:36;3.73;;;3.30;;
68050;SDS011;54839;51.364;7.246;2023-08-24T08:45:02;3.27;;;2.90;;
68050;SDS011;54839;51.364;7.246;2023-08-24T08:47:33;4.00;;;3.53;;
68050;SDS011;54839;51.364;7.246;2023-08-24T08:49:58;5.53;;;3.10;;
68050;SDS011;54839;51.364;7.246;2023-08-24T08:52:27;3.43;;;3.03;;
68050;SDS011;54839;51.364;7.246;2023-08-24T08:54:53;3.93;;;3.40;;
68050;SDS011;54839;51.364;7.246;2023-08-24T08:57:19;5.23;;;3.40;;
68050;SDS011;54839;51.364;7.246;2023-08-24T08:59:46;4.20;;;3.70;;
68050;SDS011;54839;51.364;7.246;2023-08-24T09:02:16;4.40;;;3.40;;
68050;SDS011;54839;51.364;7.246;2023-08-24T09:04:44;3.47;;;2.90;;
68050;SDS011;54839;51.364;7.246;2023-08-24T09:07:12;4.53;;;3.50;;
68050;SDS011;54839;51.364;7.246;2023-08-24T09:09:39;2.80;;;2.60;;
68050;SDS011;54839;51.364;7.246;2023-08-24T09:12:05;8.23;;;3.20;;
68050;SDS011;54839;51.364;7.246;2023-08-24T09:14:31;4.50;;;3.10;;
68050;SDS011;54839;51.364;7.246;2023-08-24T09:16:58;4.80;;;3.30;;
68050;SDS011;54839;51.364;7.246;2023-08-24T09:19:30;7.43;;;2.73;;
68050;SDS011;54839;51.364;7.246;2023-08-24T09:22:00;3.97;;;3.33;;
68050;SDS011;54839;51.364;7.246;2023-08-24T09:24:33;2.83;;;2.63;;
68050;SDS011;54839;51.364;7.246;2023-08-24T09:27:00;6.73;;;3.87;;
68050;SDS011;54839;51.364;7.246;2023-08-24T09:29:40;4.57;;;2.93;;
68050;SDS011;54839;51.364;7.246;2023-08-24T09:32:07;2.60;;;2.40;;
68050;SDS011;54839;51.364;7.246;2023-08-24T09:34:33;3.90;;;2.60;;
68050;SDS011;54839;51.364;7.246;2023-08-24T09:37:01;2.57;;;2.37;;
68050;SDS011;54839;51.364;7.246;2023-08-24T09:39:29;4.73;;;3.67;;
68050;SDS011;54839;51.364;7.246;2023-08-24T09:41:55;4.80;;;2.77;;
68050;SDS011;54839;51.364;7.246;2023-08-24T09:44:28;2.87;;;2.30;;
68050;SDS011;54839;51.364;7.246;2023-08-24T09:46:53;5.17;;;3.20;;
68050;SDS011;54839;51.364;7.246;2023-08-24T09:49:19;3.77;;;2.80;;
68050;SDS011;54839;51.364;7.246;2023-08-24T09:51:45;7.40;;;3.10;;
68050;SDS011;54839;51.364;7.246;2023-08-24T09:54:11;3.70;;;3.20;;
68050;SDS011;54839;51.364;7.246;2023-08-24T09:56:38;4.90;;;3.20;;
68050;SDS011;54839;51.364;7.246;2023-08-24T09:59:15;3.73;;;3.37;;
68050;SDS011;54839;51.364;7.246;2023-08-24T10:01:47;5.50;;;3.77;;
68050;SDS011;54839;51.364;7.246;2023-08-24T10:04:14;5.17;;;3.17;;
68050;SDS011;54839;51.364;7.246;2023-08-24T10:06:42;4.50;;;2.73;;
68050;SDS011;54839;51.364;7.246;2023-08-24T10:09:14;6.30;;;3.37;;
68050;SDS011;54839;51.364;7.246;2023-08-24T10:11:53;4.60;;;2.37;;
68050;SDS011;54839;51.364;7.246;2023-08-24T10:16:51;2.87;;;2.50;;
68050;SDS011;54839;51.364;7.246;2023-08-24T10:19:18;4.03;;;2.90;;
68050;SDS011;54839;51.364;7.246;2023-08-24T10:21:46;4.90;;;2.90;;
68050;SDS011;54839;51.364;7.246;2023-08-24T10:24:12;9.03;;;4.10;;
68050;SDS011;54839;51.364;7.246;2023-08-24T10:26:38;4.43;;;3.13;;
68050;SDS011;54839;51.364;7.246;2023-08-24T10:29:06;4.03;;;3.10;;
68050;SDS011;54839;51.364;7.246;2023-08-24T10:31:32;5.80;;;2.47;;
68050;SDS011;54839;51.364;7.246;2023-08-24T10:33:58;4.70;;;2.70;;
68050;SDS011;54839;51.364;7.246;2023-08-24T10:36:25;5.53;;;3.30;;
68050;SDS011;54839;51.364;7.246;2023-08-24T10:38:51;4.20;;;2.83;;
68050;SDS011;54839;51.364;7.246;2023-08-24T10:41:25;5.20;;;3.00;;
68050;SDS011;54839;51.364;7.246;2023-08-24T10:43:51;4.67;;;3.67;;
68050;SDS011;54839;51.364;7.246;2023-08-24T10:46:28;3.57;;;2.90;;
68050;SDS011;54839;51.364;7.246;2023-08-24T10:49:00;7.00;;;4.40;;
68050;SDS011;54839;51.364;7.246;2023-08-24T10:51:28;3.47;;;3.17;;
68050;SDS011;54839;51.364;7.246;2023-08-24T10:53:56;4.70;;;3.17;;
68050;SDS011;54839;51.364;7.246;2023-08-24T10:56:29;4.73;;;3.83;;
68050;SDS011;54839;51.364;7.246;2023-08-24T11:01:54;3.73;;;3.10;;
68050;SDS011;54839;51.364;7.246;2023-08-24T11:04:20;3.20;;;2.87;;
68050;SDS011;54839;51.364;7.246;2023-08-24T11:06:56;3.27;;;2.97;;
68050;SDS011;54839;51.364;7.246;2023-08-24T11:15:32;4.73;;;3.50;;
68050;SDS011;54839;51.364;7.246;2023-08-24T11:18:15;3.30;;;3.03;;
68050;SDS011;54839;51.364;7.246;2023-08-24T11:20:49;3.87;;;2.80;;
68050;SDS011;54839;51.364;7.246;2023-08-24T11:23:15;3.97;;;3.17;;
68050;SDS011;54839;51.364;7.246;2023-08-24T11:25:41;3.50;;;3.07;;
68050;SDS011;54839;51.364;7.246;2023-08-24T11:28:07;3.70;;;2.90;;
68050;SDS011;54839;51.364;7.246;2023-08-24T11:30:33;5.73;;;3.60;;
68050;SDS011;54839;51.364;7.246;2023-08-24T11:32:59;4.60;;;3.07;;
68050;SDS011;54839;51.364;7.246;2023-08-24T11:35:25;8.07;;;3.30;;
68050;SDS011;54839;51.364;7.246;2023-08-24T11:37:52;5.77;;;3.67;;
68050;SDS011;54839;51.364;7.246;2023-08-24T11:40:18;4.73;;;3.60;;
68050;SDS011;54839;51.364;7.246;2023-08-24T11:42:45;4.60;;;3.50;;
68050;SDS011;54839;51.364;7.246;2023-08-24T11:45:11;5.17;;;4.03;;
68050;SDS011;54839;51.364;7.246;2023-08-24T11:47:38;4.40;;;3.80;;
68050;SDS011;54839;51.364;7.246;2023-08-24T11:50:04;4.87;;;3.33;;
68050;SDS011;54839;51.364;7.246;2023-08-24T11:52:30;5.17;;;3.63;;
68050;SDS011;54839;51.364;7.246;2023-08-24T11:55:00;5.77;;;3.80;;
68050;SDS011;54839;51.364;7.246;2023-08-24T11:57:26;3.20;;;3.00;;
68050;SDS011;54839;51.364;7.246;2023-08-24T11:59:53;5.27;;;3.03;;
68050;SDS011;54839;51.364;7.246;2023-08-24T12:02:19;5.87;;;3.40;;
68050;SDS011;54839;51.364;7.246;2023-08-24T12:04:48;5.30;;;3.50;;
68050;SDS011;54839;51.364;7.246;2023-08-24T12:07:14;9.97;;;3.50;;
68050;SDS011;54839;51.364;7.246;2023-08-24T12:09:40;7.40;;;3.00;;
68050;SDS011;54839;51.364;7.246;2023-08-24T12:12:13;4.57;;;3.30;;
68050;SDS011;54839;51.364;7.246;2023-08-24T12:14:40;5.20;;;3.17;;
68050;SDS011;54839;51.364;7.246;2023-08-24T12:17:07;6.63;;;2.93;;
68050;SDS011;54839;51.364;7.246;2023-08-24T12:19:33;3.87;;;3.20;;
68050;SDS011;54839;51.364;7.246;2023-08-24T12:21:59;3.33;;;2.70;;
68050;SDS011;54839;51.364;7.246;2023-08-24T12:24:25;2.87;;;2.67;;
68050;SDS011;54839;51.364;7.246;2023-08-24T12:26:56;6.33;;;3.07;;
68050;SDS011;54839;51.364;7.246;2023-08-24T12:29:27;4.10;;;3.10;;
68050;SDS011;54839;51.364;7.246;2023-08-24T12:31:56;7.93;;;5.10;;
68050;SDS011;54839;51.364;7.246;2023-08-24T12:34:23;7.70;;;5.87;;
68050;SDS011;54839;51.364;7.246;2023-08-24T12:36:48;7.37;;;6.77;;
68050;SDS011;54839;51.364;7.246;2023-08-24T12:39:14;6.10;;;5.70;;
68050;SDS011;54839;51.364;7.246;2023-08-24T12:41:40;5.87;;;5.50;;
68050;SDS011;54839;51.364;7.246;2023-08-24T12:44:06;5.50;;;5.00;;
68050;SDS011;54839;51.364;7.246;2023-08-24T12:46:33;5.60;;;5.20;;
68050;SDS011;54839;51.364;7.246;2023-08-24T12:49:00;13.80;;;7.07;;
68050;SDS011;54839;51.364;7.246;2023-08-24T12:51:28;10.50;;;6.43;;
68050;SDS011;54839;51.364;7.246;2023-08-24T12:53:54;9.83;;;5.87;;
68050;SDS011;54839;51.364;7.246;2023-08-24T12:56:19;6.43;;;5.93;;
68050;SDS011;54839;51.364;7.246;2023-08-24T12:58:45;5.80;;;5.30;;
68050;SDS011;54839;51.364;7.246;2023-08-24T13:01:11;5.30;;;4.80;;
68050;SDS011;54839;51.364;7.246;2023-08-24T13:03:37;7.70;;;5.90;;
68050;SDS011;54839;51.364;7.246;2023-08-24T13:06:04;11.23;;;6.90;;
68050;SDS011;54839;51.364;7.246;2023-08-24T13:08:30;6.53;;;4.40;;
68050;SDS011;54839;51.364;7.246;2023-08-24T13:10:56;7.47;;;6.13;;
68050;SDS011;54839;51.364;7.246;2023-08-24T13:13:22;9.17;;;4.90;;
68050;SDS011;54839;51.364;7.246;2023-08-24T13:15:51;5.90;;;5.17;;
68050;SDS011;54839;51.364;7.246;2023-08-24T13:18:16;6.57;;;4.90;;
68050;SDS011;54839;51.364;7.246;2023-08-24T13:20:42;6.10;;;5.70;;
68050;SDS011;54839;51.364;7.246;2023-08-24T13:23:08;7.97;;;5.80;;
68050;SDS011;54839;51.364;7.246;2023-08-24T13:25:34;5.60;;;5.03;;
68050;SDS011;54839;51.364;7.246;2023-08-24T13:27:59;6.40;;;4.83;;
68050;SDS011;54839;51.364;7.246;2023-08-24T13:30:25;6.63;;;5.20;;
68050;SDS011;54839;51.364;7.246;2023-08-24T13:32:52;4.97;;;4.50;;
68050;SDS011;54839;51.364;7.246;2023-08-24T13:35:17;7.70;;;4.93;;
68050;SDS011;54839;51.364;7.246;2023-08-24T13:37:43;7.80;;;5.60;;
68050;SDS011;54839;51.364;7.246;2023-08-24T13:40:09;9.83;;;5.10;;
68050;SDS011;54839;51.364;7.246;2023-08-24T13:42:35;5.20;;;4.77;;
68050;SDS011;54839;51.364;7.246;2023-08-24T13:45:01;5.63;;;4.40;;
68050;SDS011;54839;51.364;7.246;2023-08-24T13:47:28;4.73;;;4.27;;
68050;SDS011;54839;51.364;7.246;2023-08-24T13:49:53;5.50;;;5.00;;
68050;SDS011;54839;51.364;7.246;2023-08-24T13:52:19;6.13;;;4.70;;
68050;SDS011;54839;51.364;7.246;2023-08-24T13:54:45;6.10;;;5.00;;
68050;SDS011;54839;51.364;7.246;2023-08-24T13:57:11;5.37;;;4.50;;
68050;SDS011;54839;51.364;7.246;2023-08-24T13:59:36;6.57;;;4.80;;
68050;SDS011;54839;51.364;7.246;2023-08-24T14:02:02;6.17;;;5.00;;
68050;SDS011;54839;51.364;7.246;2023-08-24T14:04:29;8.00;;;6.00;;
68050;SDS011;54839;51.364;7.246;2023-08-24T14:06:55;7.70;;;7.00;;
68050;SDS011;54839;51.364;7.246;2023-08-24T14:09:21;5.40;;;4.90;;
68050;SDS011;54839;51.364;7.246;2023-08-24T14:11:46;5.00;;;4.60;;
68050;SDS011;54839;51.364;7.246;2023-08-24T14:14:12;5.37;;;4.90;;
68050;SDS011;54839;51.364;7.246;2023-08-24T14:16:38;5.00;;;4.33;;
68050;SDS011;54839;51.364;7.246;2023-08-24T14:19:04;5.07;;;4.70;;
68050;SDS011;54839;51.364;7.246;2023-08-24T14:21:30;5.50;;;4.93;;
68050;SDS011;54839;51.364;7.246;2023-08-24T14:23:56;7.30;;;4.90;;
68050;SDS011;54839;51.364;7.246;2023-08-24T14:26:21;7.60;;;4.30;;
68050;SDS011;54839;51.364;7.246;2023-08-24T14:28:54;5.77;;;5.23;;
68050;SDS011;54839;51.364;7.246;2023-08-24T14:31:26;4.47;;;4.03;;
68050;SDS011;54839;51.364;7.246;2023-08-24T14:33:53;8.63;;;4.90;;
68050;SDS011;54839;51.364;7.246;2023-08-24T14:36:19;5.83;;;5.23;;
68050;SDS011;54839;51.364;7.246;2023-08-24T14:38:45;7.50;;;6.80;;
68050;SDS011;54839;51.364;7.246;2023-08-24T14:41:11;6.03;;;5.43;;
68050;SDS011;54839;51.364;7.246;2023-08-24T14:43:38;7.67;;;5.87;;
68050;SDS011;54839;51.364;7.246;2023-08-24T14:46:05;6.30;;;5.70;;
68050;SDS011;54839;51.364;7.246;2023-08-24T14:48:31;5.53;;;5.00;;
68050;SDS011;54839;51.364;7.246;2023-08-24T14:50:56;6.57;;;6.00;;
68050;SDS011;54839;51.364;7.246;2023-08-24T14:53:23;6.00;;;5.03;;
68050;SDS011;54839;51.364;7.246;2023-08-24T14:55:52;8.57;;;6.43;;